createdAt,value
2023-06-29T00:02:51.806Z,3.75
2023-06-29T00:05:56.566Z,4.00
2023-06-29T00:09:01.073Z,3.38
2023-06-29T00:12:05.524Z,4.30
2023-06-29T00:15:09.529Z,3.47
2023-06-29T00:18:14.015Z,3.75
2023-06-29T00:21:17.655Z,3.92
2023-06-29T00:24:22.121Z,3.63
2023-06-29T00:27:25.936Z,3.80
2023-06-29T00:30:29.331Z,4.15
2023-06-29T00:33:32.884Z,3.95
2023-06-29T00:36:36.083Z,3.78
2023-06-29T00:39:41.223Z,3.85
2023-06-29T00:42:44.377Z,3.85
2023-06-29T00:45:47.707Z,3.97
2023-06-29T00:48:50.891Z,4.40
2023-06-29T00:51:55.953Z,4.00
2023-06-29T00:55:00.900Z,4.60
2023-06-29T00:58:06.884Z,4.63
2023-06-29T01:01:10.101Z,4.15
2023-06-29T01:04:18.516Z,4.05
2023-06-29T01:07:28.633Z,4.90
2023-06-29T01:10:35.560Z,4.32
2023-06-29T01:13:40.880Z,4.53
2023-06-29T01:16:45.695Z,4.53
2023-06-29T01:19:50.927Z,4.72
2023-06-29T01:22:58.118Z,4.60
2023-06-29T01:26:05.268Z,4.85
2023-06-29T01:29:08.473Z,4.95
2023-06-29T01:32:12.790Z,4.47
2023-06-29T01:35:16.370Z,4.60
2023-06-29T01:38:26.105Z,4.80
2023-06-29T01:41:34.337Z,5.28
2023-06-29T01:44:37.733Z,4.85
2023-06-29T01:47:47.756Z,5.07
2023-06-29T01:50:51.648Z,5.05
2023-06-29T01:53:55.545Z,4.70
2023-06-29T01:57:00.436Z,4.82
2023-06-29T02:00:04.831Z,4.75
2023-06-29T02:03:17.316Z,5.18
2023-06-29T02:06:21.852Z,4.65
2023-06-29T02:09:25.063Z,4.72
2023-06-29T02:12:29.623Z,5.03
2023-06-29T02:15:32.881Z,4.90
2023-06-29T02:18:42.320Z,5.63
2023-06-29T02:21:45.564Z,4.97
2023-06-29T02:24:48.898Z,4.97
2023-06-29T02:27:53.437Z,4.95
2023-06-29T02:30:56.672Z,5.00
2023-06-29T02:34:00.269Z,5.30
2023-06-29T02:37:03.888Z,5.38
2023-06-29T02:40:08.338Z,4.57
2023-06-29T02:43:13.268Z,5.00
2023-06-29T02:46:17.188Z,5.55
2023-06-29T02:49:21.185Z,5.82
2023-06-29T02:52:25.371Z,5.32
2023-06-29T02:55:30.008Z,4.90
2023-06-29T02:58:34.538Z,4.93
2023-06-29T03:01:41.621Z,5.05
2023-06-29T03:04:44.792Z,4.95
2023-06-29T03:07:47.984Z,4.93
2023-06-29T03:10:51.165Z,5.60
2023-06-29T03:13:57.131Z,5.38
2023-06-29T03:17:00.439Z,5.47
2023-06-29T03:20:03.648Z,5.07
2023-06-29T03:23:07.067Z,5.35
2023-06-29T03:26:10.227Z,5.68
2023-06-29T03:29:14.990Z,5.43
2023-06-29T03:35:10.835Z,5.28
2023-06-29T03:38:14.080Z,5.28
2023-06-29T03:41:17.408Z,5.75
2023-06-29T03:44:20.585Z,5.18
2023-06-29T03:47:23.846Z,5.47
2023-06-29T03:50:28.653Z,5.18
2023-06-29T03:53:31.813Z,5.65
2023-06-29T03:56:35.174Z,5.30
2023-06-29T03:59:38.481Z,5.45
2023-06-29T04:02:48.526Z,5.25
2023-06-29T04:05:53.017Z,5.25
2023-06-29T04:08:56.201Z,5.50
2023-06-29T04:11:59.489Z,5.40
2023-06-29T04:15:02.651Z,5.78
2023-06-29T04:18:06.605Z,5.28
2023-06-29T04:21:11.415Z,5.95
2023-06-29T04:24:14.753Z,4.90
2023-06-29T04:27:18.753Z,5.15
2023-06-29T04:30:22.044Z,5.60
2023-06-29T04:33:25.449Z,4.85
2023-06-29T04:36:30.474Z,5.63
2023-06-29T04:39:33.800Z,5.45
2023-06-29T04:42:45.042Z,5.25
2023-06-29T04:45:48.400Z,6.03
2023-06-29T04:48:51.715Z,5.38
2023-06-29T04:51:58.982Z,5.88
2023-06-29T04:55:03.624Z,5.70
2023-06-29T04:58:07.245Z,5.20
2023-06-29T05:01:10.669Z,5.65
2023-06-29T05:04:13.846Z,5.80
2023-06-29T05:07:18.957Z,6.10
2023-06-29T05:10:22.435Z,5.15
2023-06-29T05:13:25.584Z,6.05
2023-06-29T05:16:30.138Z,5.72
2023-06-29T05:19:35.430Z,4.97
2023-06-29T05:22:40.077Z,5.20
2023-06-29T05:25:43.575Z,5.22
2023-06-29T05:29:03.781Z,5.20
2023-06-29T05:32:08.541Z,2.50
2023-06-29T05:35:11.652Z,3.00
2023-06-29T05:38:16.420Z,2.60
2023-06-29T05:41:19.651Z,4.15
2023-06-29T05:44:22.763Z,3.10
2023-06-29T05:47:25.968Z,3.85
2023-06-29T05:50:29.215Z,2.95
2023-06-29T05:53:33.897Z,3.03
2023-06-29T05:56:37.143Z,2.35
2023-06-29T05:59:40.346Z,2.22
2023-06-29T06:02:47.760Z,1.90
2023-06-29T06:05:51.113Z,2.17
2023-06-29T06:08:55.857Z,3.55
2023-06-29T06:11:59.026Z,2.40
2023-06-29T06:15:02.200Z,2.65
2023-06-29T06:18:05.999Z,2.90
2023-06-29T06:21:09.416Z,2.92
2023-06-29T06:24:13.902Z,3.65
2023-06-29T06:27:17.205Z,1.98
2023-06-29T06:30:22.102Z,3.22
2023-06-29T06:33:25.325Z,2.13
2023-06-29T06:36:31.182Z,2.20
2023-06-29T06:39:36.123Z,3.38
2023-06-29T06:42:40.391Z,2.63
2023-06-29T06:45:43.613Z,2.45
2023-06-29T06:48:48.686Z,2.20
2023-06-29T06:51:51.869Z,1.70
2023-06-29T06:54:58.190Z,1.70
2023-06-29T06:58:01.423Z,2.00
2023-06-29T07:01:05.199Z,1.60
2023-06-29T07:04:08.403Z,1.30
2023-06-29T07:07:11.691Z,2.28
2023-06-29T07:10:16.313Z,2.03
2023-06-29T07:13:20.071Z,2.70
2023-06-29T07:16:24.620Z,2.03
2023-06-29T07:25:41.789Z,2.20
2023-06-29T07:28:45.292Z,2.50
2023-06-29T07:31:48.746Z,2.35
2023-06-29T07:34:52.068Z,2.15
2023-06-29T07:37:55.226Z,2.22
2023-06-29T07:40:59.760Z,2.00
2023-06-29T07:44:03.058Z,2.50
2023-06-29T07:47:07.307Z,1.77
2023-06-29T07:50:12.178Z,1.33
2023-06-29T07:53:15.342Z,1.42
2023-06-29T07:56:20.332Z,1.73
2023-06-29T07:59:24.119Z,1.58
2023-06-29T08:02:27.361Z,1.70
2023-06-29T08:08:37.089Z,2.17
2023-06-29T08:11:41.748Z,1.65
2023-06-29T08:14:45.015Z,1.80
2023-06-29T08:17:48.376Z,1.65
2023-06-29T08:20:52.186Z,1.10
2023-06-29T08:23:55.424Z,1.30
2023-06-29T08:27:01.084Z,1.05
2023-06-29T08:30:04.858Z,1.20
2023-06-29T08:33:08.422Z,1.55
2023-06-29T08:36:11.756Z,1.33
2023-06-29T08:39:15.031Z,1.40
2023-06-29T08:42:20.801Z,1.50
2023-06-29T08:45:24.002Z,1.48
2023-06-29T08:48:28.059Z,1.90
2023-06-29T08:51:35.972Z,2.13
2023-06-29T08:54:40.978Z,1.90
2023-06-29T08:57:46.131Z,1.30
2023-06-29T09:00:50.265Z,1.17
2023-06-29T09:03:54.020Z,1.55
2023-06-29T09:06:58.066Z,1.20
2023-06-29T09:10:01.428Z,1.52
2023-06-29T09:13:07.317Z,1.00
2023-06-29T09:16:11.698Z,1.73
2023-06-29T09:19:15.146Z,1.17
2023-06-29T09:22:19.189Z,1.10
2023-06-29T09:25:34.024Z,1.65
2023-06-29T09:28:46.898Z,2.15
2023-06-29T09:35:11.384Z,1.10
2023-06-29T09:38:16.144Z,1.15
2023-06-29T09:41:19.709Z,1.17
2023-06-29T09:44:25.975Z,1.20
2023-06-29T09:50:37.592Z,1.98
2023-06-29T09:53:40.892Z,1.20
2023-06-29T09:56:45.414Z,1.40
2023-06-29T09:59:50.808Z,1.23
2023-06-29T10:02:55.045Z,1.75
2023-06-29T10:06:08.903Z,0.75
2023-06-29T10:09:16.735Z,1.00
2023-06-29T10:12:21.024Z,1.50
2023-06-29T10:15:27.794Z,1.17
2023-06-29T10:18:34.519Z,1.45
2023-06-29T10:21:39.364Z,1.48
2023-06-29T10:24:49.938Z,1.20
2023-06-29T10:27:56.137Z,1.20
2023-06-29T10:31:00.816Z,1.38
2023-06-29T10:34:08.267Z,0.70
2023-06-29T10:37:31.103Z,1.30
2023-06-29T10:40:35.214Z,0.80
2023-06-29T10:43:56.460Z,1.40
2023-06-29T10:46:59.736Z,1.52
2023-06-29T10:50:20.159Z,1.55
2023-06-29T10:53:24.888Z,1.40
2023-06-29T10:56:32.447Z,1.00
2023-06-29T10:59:38.161Z,1.55
2023-06-29T11:02:50.200Z,1.35
2023-06-29T11:05:54.688Z,1.77
2023-06-29T11:09:02.620Z,1.45
2023-06-29T11:12:07.151Z,1.10
2023-06-29T11:15:19.673Z,1.15
2023-06-29T11:18:24.010Z,1.30
2023-06-29T11:21:27.997Z,1.20
2023-06-29T11:24:32.647Z,1.20
2023-06-29T11:27:36.253Z,1.30
2023-06-29T11:30:41.483Z,1.55
2023-06-29T11:33:51.528Z,0.88
2023-06-29T11:40:08.689Z,1.30
2023-06-29T11:43:12.267Z,0.88
2023-06-29T11:46:16.106Z,2.38
2023-06-29T11:49:21.130Z,2.30
2023-06-29T11:52:26.559Z,2.10
2023-06-29T11:55:31.737Z,2.20
2023-06-29T11:58:35.953Z,2.38
2023-06-29T12:01:39.758Z,2.13
2023-06-29T12:04:56.205Z,2.08
2023-06-29T12:08:07.884Z,1.70
2023-06-29T12:11:22.893Z,1.95
2023-06-29T12:14:28.980Z,2.00
2023-06-29T12:20:43.622Z,1.95
2023-06-29T12:23:47.338Z,1.83
2023-06-29T12:26:52.164Z,1.88
2023-06-29T12:29:55.274Z,2.28
2023-06-29T12:32:58.534Z,2.08
2023-06-29T12:36:02.114Z,2.17
2023-06-29T12:39:05.616Z,2.00
2023-06-29T12:42:10.205Z,2.17
2023-06-29T12:45:13.372Z,1.80
2023-06-29T12:48:16.772Z,1.80
2023-06-29T12:51:19.937Z,2.00
2023-06-29T12:54:23.125Z,2.28
2023-06-29T12:57:29.529Z,2.10
2023-06-29T13:00:32.751Z,1.90
2023-06-29T13:03:36.637Z,2.25
2023-06-29T13:06:40.453Z,2.10
2023-06-29T13:09:44.301Z,1.85
2023-06-29T13:12:49.533Z,1.80
2023-06-29T13:15:52.747Z,2.33
2023-06-29T13:18:56.023Z,2.20
2023-06-29T13:21:59.359Z,2.20
2023-06-29T13:25:02.549Z,1.70
2023-06-29T13:28:07.571Z,2.30
2023-06-29T13:31:10.874Z,2.35
2023-06-29T13:34:14.477Z,2.28
2023-06-29T13:37:17.996Z,2.33
2023-06-29T13:40:21.228Z,1.90
2023-06-29T13:43:25.933Z,1.90
2023-06-29T13:46:29.200Z,1.98
2023-06-29T13:49:32.345Z,1.90
2023-06-29T13:52:36.280Z,2.03
2023-06-29T13:55:39.482Z,2.08
2023-06-29T13:58:44.339Z,2.03
2023-06-29T14:01:47.618Z,1.98
2023-06-29T14:04:50.908Z,1.90
2023-06-29T14:07:54.141Z,2.22
2023-06-29T14:10:57.515Z,2.00
2023-06-29T14:14:02.183Z,2.22
2023-06-29T14:17:05.801Z,2.40
2023-06-29T14:20:10.001Z,2.38
2023-06-29T14:23:13.672Z,2.17
2023-06-29T14:26:17.048Z,1.88
2023-06-29T14:29:21.652Z,1.70
2023-06-29T14:32:24.863Z,2.50
2023-06-29T14:35:31.909Z,2.25
2023-06-29T14:38:37.401Z,1.90
2023-06-29T14:41:52.706Z,1.92
2023-06-29T14:44:57.396Z,2.10
2023-06-29T14:48:00.762Z,2.13
2023-06-29T14:51:04.122Z,2.08
2023-06-29T14:54:07.414Z,2.10
2023-06-29T14:57:10.893Z,2.38
2023-06-29T15:00:17.090Z,2.17
2023-06-29T15:03:20.652Z,2.13
2023-06-29T15:06:23.866Z,2.42
2023-06-29T15:09:27.690Z,2.00
2023-06-29T15:12:30.920Z,2.10
2023-06-29T15:15:35.564Z,1.92
2023-06-29T15:18:46.844Z,2.20
2023-06-29T15:21:58.436Z,2.15
2023-06-29T15:25:01.691Z,2.13
2023-06-29T15:28:04.921Z,2.10
2023-06-29T15:35:11.575Z,2.13
2023-06-29T15:38:14.770Z,2.10
2023-06-29T15:41:18.545Z,2.53
2023-06-29T15:44:21.706Z,2.20
2023-06-29T15:47:25.030Z,2.38
2023-06-29T15:50:29.481Z,2.10
2023-06-29T15:53:32.803Z,2.40
2023-06-29T15:56:36.512Z,2.00
2023-06-29T15:59:39.785Z,2.40
2023-06-29T16:02:47.454Z,2.17
2023-06-29T16:05:52.342Z,2.42
2023-06-29T16:08:55.569Z,2.95
2023-06-29T16:11:58.882Z,3.83
2023-06-29T16:15:02.219Z,2.80
2023-06-29T16:18:05.547Z,3.03
2023-06-29T16:21:10.312Z,2.88
2023-06-29T16:24:13.534Z,2.75
2023-06-29T16:27:16.726Z,3.10
2023-06-29T16:30:20.045Z,2.60
2023-06-29T16:33:23.620Z,2.67
2023-06-29T16:36:28.323Z,2.55
2023-06-29T16:39:31.624Z,2.63
2023-06-29T16:42:34.852Z,2.10
2023-06-29T16:45:38.094Z,2.55
2023-06-29T16:48:41.407Z,2.38
2023-06-29T16:51:46.064Z,2.28
2023-06-29T16:54:49.610Z,2.03
2023-06-29T16:57:53.303Z,2.42
2023-06-29T17:00:56.668Z,2.72
2023-06-29T17:03:59.893Z,2.63
2023-06-29T17:07:04.843Z,2.65
2023-06-29T17:10:08.822Z,2.53
2023-06-29T17:13:12.014Z,2.42
2023-06-29T17:16:15.712Z,3.08
2023-06-29T17:19:18.897Z,2.60
2023-06-29T17:22:23.464Z,2.70
2023-06-29T17:25:26.634Z,2.60
2023-06-29T17:28:29.830Z,2.80
2023-06-29T17:31:33.270Z,2.88
2023-06-29T17:34:36.893Z,2.70
2023-06-29T17:37:42.457Z,2.55
2023-06-29T17:40:45.704Z,2.80
2023-06-29T17:43:48.869Z,2.72
2023-06-29T17:46:52.165Z,2.63
2023-06-29T17:49:55.313Z,2.97
2023-06-29T17:52:59.866Z,3.00
2023-06-29T17:56:03.054Z,2.95
2023-06-29T17:59:06.866Z,3.00
2023-06-29T18:02:10.107Z,3.10
2023-06-29T18:05:13.335Z,2.85
2023-06-29T18:08:18.324Z,2.45
2023-06-29T18:11:21.507Z,2.95
2023-06-29T18:14:24.658Z,3.15
2023-06-29T18:17:30.928Z,2.83
2023-06-29T18:20:34.462Z,2.65
2023-06-29T18:23:39.037Z,2.40
2023-06-29T18:26:42.218Z,3.00
2023-06-29T18:29:45.393Z,2.92
2023-06-29T18:32:50.762Z,3.00
2023-06-29T18:35:54.028Z,2.83
2023-06-29T18:38:59.066Z,2.83
2023-06-29T18:42:02.282Z,3.10
2023-06-29T18:45:06.816Z,3.10
2023-06-29T18:48:10.273Z,2.72
2023-06-29T18:51:13.446Z,2.80
2023-06-29T18:54:18.001Z,2.78
2023-06-29T18:57:21.282Z,2.72
2023-06-29T19:00:25.606Z,3.20
2023-06-29T19:03:28.927Z,2.72
2023-06-29T19:06:32.438Z,2.70
2023-06-29T19:09:36.919Z,2.55
2023-06-29T19:12:40.233Z,3.33
2023-06-29T19:15:43.800Z,3.00
2023-06-29T19:18:47.215Z,2.60
2023-06-29T19:21:50.664Z,3.53
2023-06-29T19:24:55.294Z,2.85
2023-06-29T19:27:58.557Z,3.13
2023-06-29T19:31:01.781Z,3.08
2023-06-29T19:34:06.616Z,3.13
2023-06-29T19:37:11.290Z,3.13
2023-06-29T19:40:15.922Z,3.17
2023-06-29T19:43:19.474Z,3.10
2023-06-29T19:46:22.727Z,2.70
2023-06-29T19:49:27.918Z,2.88
2023-06-29T19:52:31.139Z,3.00
2023-06-29T19:55:36.433Z,3.28
2023-06-29T19:58:41.824Z,2.70
2023-06-29T20:01:45.120Z,3.45
2023-06-29T20:04:48.321Z,3.17
2023-06-29T20:07:52.181Z,3.20
2023-06-29T20:10:56.776Z,3.25
2023-06-29T20:14:00.163Z,3.03
2023-06-29T20:17:03.679Z,3.10
2023-06-29T20:20:08.912Z,3.05
2023-06-29T20:23:12.641Z,3.22
2023-06-29T20:26:17.255Z,3.28
2023-06-29T20:29:20.486Z,3.10
2023-06-29T20:32:23.835Z,3.35
2023-06-29T20:35:27.006Z,2.72
2023-06-29T20:38:30.216Z,2.85
2023-06-29T20:41:34.783Z,3.00
2023-06-29T20:44:38.102Z,2.97
2023-06-29T20:47:48.127Z,3.40
2023-06-29T20:51:00.778Z,3.42
2023-06-29T20:54:14.895Z,3.40
2023-06-29T20:57:23.248Z,3.85
2023-06-29T21:00:26.597Z,3.83
2023-06-29T21:03:34.212Z,3.78
2023-06-29T21:06:37.913Z,3.60
2023-06-29T21:09:42.778Z,3.72
2023-06-29T21:12:49.481Z,4.60
2023-06-29T21:15:53.089Z,4.07
2023-06-29T21:18:56.862Z,4.40
2023-06-29T21:22:00.467Z,3.95
2023-06-29T21:25:04.258Z,4.45
2023-06-29T21:28:11.673Z,4.30
2023-06-29T21:35:11.877Z,4.60
2023-06-29T21:38:15.594Z,4.15
2023-06-29T21:41:18.776Z,4.38
2023-06-29T21:44:21.979Z,3.47
2023-06-29T21:47:25.231Z,4.00
2023-06-29T21:50:29.761Z,3.95
2023-06-29T21:53:32.944Z,4.20
2023-06-29T21:56:36.235Z,4.13
2023-06-29T21:59:39.358Z,4.20
2023-06-29T22:02:47.408Z,4.30
2023-06-29T22:05:52.026Z,3.92
2023-06-29T22:08:55.339Z,4.15
2023-06-29T22:11:58.635Z,4.82
2023-06-29T22:15:01.776Z,3.80
2023-06-29T22:18:07.942Z,4.30
2023-06-29T22:21:13.372Z,4.32
2023-06-29T22:24:16.522Z,3.97
2023-06-29T22:27:19.695Z,4.10
2023-06-29T22:30:22.830Z,4.00
2023-06-29T22:33:26.327Z,4.30
2023-06-29T22:36:30.819Z,4.00
2023-06-29T22:39:33.952Z,3.67
2023-06-29T22:42:37.666Z,4.30
2023-06-29T22:45:41.302Z,3.40
2023-06-29T22:48:45.107Z,3.92
2023-06-29T22:51:49.638Z,3.75
2023-06-29T22:54:53.717Z,3.95
2023-06-29T22:57:56.897Z,3.50
2023-06-29T23:01:01.974Z,3.58
2023-06-29T23:04:05.638Z,3.63
2023-06-29T23:07:10.234Z,3.75
2023-06-29T23:10:14.451Z,3.58
2023-06-29T23:13:18.067Z,3.95
2023-06-29T23:16:21.503Z,3.60
2023-06-29T23:19:24.739Z,4.03
2023-06-29T23:22:29.547Z,4.15
2023-06-29T23:25:34.122Z,4.20
2023-06-29T23:28:37.857Z,3.95
2023-06-29T23:31:41.449Z,4.20
2023-06-29T23:34:44.761Z,4.50
2023-06-29T23:37:49.485Z,4.20
2023-06-29T23:40:52.650Z,4.38
2023-06-29T23:44:03.892Z,4.47
2023-06-29T23:47:11.105Z,3.85
2023-06-29T23:50:14.454Z,4.22
2023-06-29T23:53:19.402Z,4.32
2023-06-29T23:56:22.542Z,4.30
2023-06-29T23:59:25.636Z,4.40
